createdAt,value
2017-09-11T00:02:40.800Z,997.7
2017-09-11T00:07:45.193Z,997.6
2017-09-11T00:12:50.590Z,997.5
2017-09-11T00:17:55.990Z,997.4
2017-09-11T00:23:00.717Z,997.4
2017-09-11T00:28:06.114Z,997.3
2017-09-11T00:33:11.177Z,997.2
2017-09-11T00:38:16.575Z,997.2
2017-09-11T00:43:22.309Z,997.1
2017-09-11T00:48:28.378Z,997
2017-09-11T00:53:33.113Z,996.9
2017-09-11T00:58:37.840Z,996.9
2017-09-11T01:03:43.239Z,996.8
2017-09-11T01:08:49.310Z,996.8
2017-09-11T01:13:54.042Z,996.7
2017-09-11T01:19:00.109Z,996.7
2017-09-11T01:24:04.167Z,996.5
2017-09-11T01:29:09.567Z,996.5
2017-09-11T01:34:14.966Z,996.5
2017-09-11T01:39:19.022Z,996.5
2017-09-11T01:44:24.754Z,996.3
2017-09-11T01:49:30.485Z,996.3
2017-09-11T01:54:35.215Z,996.4
2017-09-11T01:59:40.950Z,996.3
2017-09-11T02:04:45.677Z,996.2
2017-09-11T02:09:50.403Z,996.2
2017-09-11T02:14:56.138Z,996.2
2017-09-11T02:20:01.540Z,996.1
2017-09-11T02:25:06.272Z,996
2017-09-11T02:30:12.342Z,995.9
2017-09-11T02:35:17.072Z,995.9
2017-09-11T02:40:22.805Z,995.8
2017-09-11T02:45:28.207Z,995.7
2017-09-11T02:50:32.932Z,995.7
2017-09-11T02:55:38.665Z,995.5
2017-09-11T03:00:44.401Z,995.6
2017-09-11T03:05:49.131Z,995.5
2017-09-11T03:10:54.198Z,995.4
2017-09-11T03:15:59.260Z,995.3
2017-09-11T03:21:04.658Z,995.3
2017-09-11T03:26:09.726Z,995.2
2017-09-11T03:31:15.796Z,995.1
2017-09-11T03:36:21.866Z,995.2
2017-09-11T03:41:26.592Z,995.1
2017-09-11T03:46:31.994Z,995.1
2017-09-11T03:51:38.059Z,995.1
2017-09-11T03:56:43.453Z,995.1
2017-09-11T04:01:48.528Z,995.1
2017-09-11T04:06:53.945Z,995
2017-09-11T04:11:59.006Z,995
2017-09-11T04:17:05.075Z,995
2017-09-11T04:22:10.473Z,995
2017-09-11T04:27:15.536Z,995
2017-09-11T04:32:19.925Z,995
2017-09-11T04:37:25.327Z,995.1
2017-09-11T04:42:30.061Z,995.1
2017-09-11T04:47:35.124Z,995.1
2017-09-11T04:52:39.852Z,995.1
2017-09-11T04:57:44.915Z,995.1
2017-09-11T05:02:49.847Z,995.1
2017-09-11T05:07:55.266Z,995
2017-09-11T05:13:00.331Z,995
2017-09-11T05:18:05.417Z,995.1
2017-09-11T05:23:11.150Z,995.1
2017-09-11T05:28:16.883Z,995
2017-09-11T05:33:21.952Z,994.9
2017-09-11T05:38:27.359Z,995
2017-09-11T05:43:32.089Z,995
2017-09-11T05:48:37.490Z,995.1
2017-09-11T05:53:42.891Z,995
2017-09-11T05:58:48.622Z,995
2017-09-11T06:03:53.358Z,995
2017-09-11T06:08:59.095Z,995
2017-09-11T06:14:04.497Z,995
2017-09-11T06:19:09.896Z,994.9
2017-09-11T06:24:14.958Z,994.9
2017-09-11T06:29:20.357Z,995
2017-09-11T06:34:25.417Z,994.9
2017-09-11T06:39:30.146Z,994.9
2017-09-11T06:44:35.540Z,994.9
2017-09-11T06:49:40.936Z,994.9
2017-09-11T06:54:45.996Z,994.9
2017-09-11T06:59:50.719Z,995
2017-09-11T07:04:55.780Z,995
2017-09-11T07:10:01.512Z,995
2017-09-11T07:15:06.910Z,995
2017-09-11T07:20:11.640Z,995
2017-09-11T07:25:16.028Z,995
2017-09-11T07:30:21.762Z,995
2017-09-11T07:35:26.823Z,995.1
2017-09-11T07:40:32.229Z,995.2
2017-09-11T07:45:37.627Z,995.2
2017-09-11T07:50:43.360Z,995.2
2017-09-11T07:55:47.757Z,995.3
2017-09-11T08:00:52.491Z,995.4
2017-09-11T08:05:57.227Z,995.4
2017-09-11T08:11:02.631Z,995.4
2017-09-11T08:16:08.037Z,995.4
2017-09-11T08:21:13.441Z,995.5
2017-09-11T08:26:19.186Z,995.5
2017-09-11T08:31:24.927Z,995.6
2017-09-11T08:36:30.328Z,995.5
2017-09-11T08:41:35.731Z,995.6
2017-09-11T08:46:41.138Z,995.6
2017-09-11T08:51:46.209Z,995.5
2017-09-11T08:56:51.286Z,995.6
2017-09-11T09:01:56.691Z,995.5
2017-09-11T09:07:01.767Z,995.5
2017-09-11T09:12:06.510Z,995.5
2017-09-11T09:17:12.257Z,995.6
2017-09-11T09:22:17.339Z,995.6
2017-09-11T09:27:22.759Z,995.5
2017-09-11T09:32:28.171Z,995.5
2017-09-11T09:37:33.248Z,995.5
2017-09-11T09:42:38.637Z,995.5
2017-09-11T09:47:43.381Z,995.4
2017-09-11T09:52:47.793Z,995.4
2017-09-11T09:57:53.202Z,995.4
2017-09-11T10:02:58.278Z,995.3
2017-09-11T10:08:03.019Z,995.4
2017-09-11T10:13:09.102Z,995.2
2017-09-11T10:18:13.841Z,995.3
2017-09-11T10:23:19.586Z,995.4
2017-09-11T10:28:24.994Z,995.4
2017-09-11T10:33:29.789Z,995.4
2017-09-11T10:38:34.867Z,995.5
2017-09-11T10:43:40.278Z,995.5
2017-09-11T10:48:46.025Z,995.6
2017-09-11T10:53:50.765Z,995.5
2017-09-11T10:58:55.837Z,995.4
2017-09-11T11:04:01.581Z,995.5
2017-09-11T11:09:06.991Z,995.5
2017-09-11T11:14:12.400Z,995.5
2017-09-11T11:19:17.486Z,995.5
2017-09-11T11:24:22.548Z,995.4
2017-09-11T11:29:27.625Z,995.4
2017-09-11T11:34:33.029Z,995.4
2017-09-11T11:39:38.126Z,995.4
2017-09-11T11:44:43.202Z,995.4
2017-09-11T11:49:48.620Z,995.5
2017-09-11T11:54:53.688Z,995.5
2017-09-11T11:59:59.451Z,995.6
2017-09-11T12:05:03.852Z,995.6
2017-09-11T12:10:09.261Z,995.5
2017-09-11T12:15:14.026Z,995.7
2017-09-11T12:20:19.101Z,995.6
2017-09-11T12:25:23.500Z,995.6
2017-09-11T12:30:28.572Z,995.5
2017-09-11T12:35:32.973Z,995.6
2017-09-11T12:40:37.709Z,995.6
2017-09-11T12:45:43.462Z,995.6
2017-09-11T12:50:48.876Z,995.6
2017-09-11T12:55:53.952Z,995.7
2017-09-11T13:00:59.024Z,995.7
2017-09-11T13:06:04.773Z,995.8
2017-09-11T13:11:10.188Z,995.9
2017-09-11T13:16:15.260Z,995.9
2017-09-11T13:21:20.666Z,995.9
2017-09-11T13:26:25.738Z,995.9
2017-09-11T13:31:30.476Z,995.9
2017-09-11T13:36:35.889Z,995.9
2017-09-11T13:41:40.959Z,995.8
2017-09-11T13:46:46.028Z,995.9
2017-09-11T13:51:51.100Z,995.7
2017-09-11T13:56:55.847Z,995.7
2017-09-11T14:02:01.254Z,995.7
2017-09-11T14:07:06.325Z,995.6
2017-09-11T14:12:11.400Z,995.7
2017-09-11T14:17:17.209Z,995.7
2017-09-11T14:22:22.281Z,995.8
2017-09-11T14:27:27.023Z,995.7
2017-09-11T14:32:33.018Z,995.7
2017-09-11T14:37:37.818Z,995.7
2017-09-11T14:42:43.722Z,995.7
2017-09-11T14:47:49.681Z,995.7
2017-09-11T14:52:55.142Z,995.8
2017-09-11T14:58:00.219Z,995.9
2017-09-11T15:03:05.298Z,995.9
2017-09-11T15:08:10.709Z,996.1
2017-09-11T15:13:16.118Z,996.2
2017-09-11T15:18:21.865Z,996
2017-09-11T15:23:27.293Z,996
2017-09-11T15:28:32.379Z,996
2017-09-11T15:33:38.163Z,996
2017-09-11T15:38:42.927Z,996
2017-09-11T15:43:48.342Z,996
2017-09-11T15:48:53.635Z,995.9
2017-09-11T15:53:59.048Z,996
2017-09-11T15:59:04.463Z,995.9
2017-09-11T16:04:09.543Z,996
2017-09-11T16:09:15.288Z,996
2017-09-11T16:14:20.374Z,996
2017-09-11T16:19:25.126Z,996
2017-09-11T16:24:29.872Z,995.9
2017-09-11T16:29:35.352Z,995.9
2017-09-11T16:34:40.120Z,995.9
2017-09-11T16:39:45.531Z,995.9
2017-09-11T16:44:51.280Z,995.9
2017-09-11T16:49:56.025Z,995.8
2017-09-11T16:55:01.113Z,995.8
2017-09-11T17:00:06.207Z,995.7
2017-09-11T17:05:11.628Z,995.7
2017-09-11T17:10:17.391Z,995.8
2017-09-11T17:15:23.486Z,995.9
2017-09-11T17:20:28.579Z,995.8
2017-09-11T17:25:33.320Z,995.8
2017-09-11T17:30:38.408Z,995.9
2017-09-11T17:35:43.827Z,995.9
2017-09-11T17:40:48.570Z,996
2017-09-11T17:45:54.319Z,996
2017-09-11T17:50:59.740Z,996.1
2017-09-11T17:56:04.147Z,996
2017-09-11T18:01:09.225Z,996
2017-09-11T18:06:14.636Z,996
2017-09-11T18:11:20.708Z,996
2017-09-11T18:16:26.442Z,996.1
2017-09-11T18:21:30.874Z,996.2
2017-09-11T18:26:36.285Z,996.2
2017-09-11T18:31:41.353Z,996.2
2017-09-11T18:36:46.416Z,996.3
2017-09-11T18:41:52.151Z,996.3
2017-09-11T18:46:56.885Z,996.4
2017-09-11T18:52:01.293Z,996.5
2017-09-11T18:57:06.702Z,996.5
2017-09-11T19:02:11.105Z,996.5
2017-09-11T19:07:16.183Z,996.5
2017-09-11T19:12:21.591Z,996.6
2017-09-11T19:17:26.665Z,996.6
2017-09-11T19:22:32.070Z,996.6
2017-09-11T19:27:38.150Z,996.7
2017-09-11T19:32:43.896Z,996.6
2017-09-11T19:37:49.317Z,996.6
2017-09-11T19:42:54.639Z,996.5
2017-09-11T19:47:59.708Z,996.5
2017-09-11T19:53:04.451Z,996.4
2017-09-11T19:58:09.857Z,996.3
2017-09-11T20:03:13.923Z,996.3
2017-09-11T20:08:19.332Z,996.4
2017-09-11T20:13:24.087Z,996.4
2017-09-11T20:18:29.493Z,996.4
2017-09-11T20:23:35.566Z,996.4
2017-09-11T20:28:39.969Z,996.4
2017-09-11T20:33:45.379Z,996.5
2017-09-11T20:38:50.453Z,996.5
2017-09-11T20:43:55.183Z,996.5
2017-09-11T20:49:00.260Z,996.5
2017-09-11T20:54:05.996Z,996.6
2017-09-11T20:59:11.402Z,996.7
2017-09-11T21:04:16.481Z,996.6
2017-09-11T21:09:21.550Z,996.5
2017-09-11T21:14:26.951Z,996.5
2017-09-11T21:19:31.683Z,996.5
2017-09-11T21:24:37.082Z,996.6
2017-09-11T21:29:42.485Z,996.6
2017-09-11T21:34:47.880Z,996.6
2017-09-11T21:39:52.950Z,996.6
2017-09-11T21:44:58.348Z,996.6
2017-09-11T21:50:03.419Z,996.6
2017-09-11T21:55:08.825Z,996.6
2017-09-11T22:00:14.555Z,996.6
2017-09-11T22:05:19.957Z,996.5
2017-09-11T22:10:25.690Z,996.5
2017-09-11T22:15:30.753Z,996.5
2017-09-11T22:20:36.159Z,996.6
2017-09-11T22:25:42.151Z,996.5
2017-09-11T22:30:47.212Z,996.5
2017-09-11T22:35:51.939Z,996.5
2017-09-11T22:40:56.671Z,996.6
2017-09-11T22:46:02.409Z,996.7
2017-09-11T22:51:08.142Z,996.9
2017-09-11T22:56:13.545Z,997
2017-09-11T23:01:18.609Z,997
2017-09-11T23:06:23.674Z,997.3
2017-09-11T23:11:29.407Z,997.2
2017-09-11T23:16:34.136Z,997.2
2017-09-11T23:21:38.860Z,997.3
2017-09-11T23:26:43.926Z,997.3
2017-09-11T23:31:49.659Z,997.3
2017-09-11T23:36:55.391Z,997.4
2017-09-11T23:42:00.120Z,997.3
2017-09-11T23:47:05.186Z,997.3
2017-09-11T23:52:10.585Z,997.3
2017-09-11T23:57:16.652Z,997.3
